Terminal Aerodrome Forecast
Issued by NWS

Home | Current Version | Previous Version | Text Only | Print | Product List | Glossary On
Versions: 1 2 3 4 5 6 7 8 9 10 11 12 13 14 15
000
FTUS44 KHGX 210520
TAFCXO
TAF
KCXO 210520Z 2106/2206 19004KT P6SM SCT250
     FM211500 23004KT P6SM SCT050
     FM211900 17006KT P6SM SCT060=

USA.gov is the U.S. government's official web portal to all federal, state and local government web resources and services.